Time,TemperatureF,DewpointF,PressureIn,WindDirection,WindDirectionDegrees,WindSpeedMPH,WindSpeedGustMPH,Humidity,HourlyPrecipIn,Conditions,Clouds,dailyrainin,SoftwareType,DateUTC
2013-02-26 00:41:00,39.0,13.0,-100.00,North,-999,-999.0,-999.0,33,-99.99,,,-99.99,,2013-02-26 08:41:00,
2013-02-26 00:52:00,39.0,13.0,-100.00,North,-999,-999.0,-999.0,33,-99.99,,,-99.99,,2013-02-26 08:52:00,
2013-02-26 01:11:00,40.0,13.0,-100.00,North,-999,-999.0,-999.0,32,-99.99,,,-99.99,,2013-02-26 09:11:00,
2013-02-26 01:21:00,40.0,13.0,-100.00,North,-999,-999.0,-999.0,32,-99.99,,,-99.99,,2013-02-26 09:21:00,
2013-02-26 01:32:00,39.0,-99.9,-100.00,North,-999,-999.0,-999.0,-999,-99.99,,,-99.99,,2013-02-26 09:32:00,
2013-02-26 01:43:00,39.0,11.0,-100.00,North,-999,-999.0,-999.0,31,-99.99,,,0.00,,2013-02-26 09:43:00,
2013-02-26 01:52:00,-999.0,-99.9,-100.00,West,264,3.0,-999.0,-999,-99.99,,,-99.99,,2013-02-26 09:52:00,
2013-02-26 02:01:00,40.0,12.0,-100.00,North,-999,-999.0,-999.0,30,-99.99,,,-99.99,,2013-02-26 10:01:00,
2013-02-26 02:32:00,-999.0,-99.9,-100.00,WNW,292,4.0,-999.0,-999,-99.99,,,-99.99,,2013-02-26 10:32:00,
2013-02-26 03:11:00,39.0,11.0,-100.00,North,-999,-999.0,-999.0,30,-99.99,,,-99.99,,2013-02-26 11:11:00,
2013-02-26 03:22:00,-999.0,-99.9,-100.00,NW,315,3.0,-999.0,-999,-99.99,,,-99.99,,2013-02-26 11:22:00,
2013-02-26 04:11:00,38.0,12.0,-100.00,North,-999,-999.0,-999.0,33,-99.99,,,-99.99,,2013-02-26 12:11:00,
2013-02-26 04:22:00,38.0,12.0,-100.00,North,-999,-999.0,-999.0,33,-99.99,,,-99.99,,2013-02-26 12:22:00,
2013-02-26 05:01:00,37.0,12.0,-100.00,North,-999,-999.0,-999.0,35,-99.99,,,-99.99,,2013-02-26 13:01:00,
2013-02-26 05:31:00,36.0,13.0,-100.00,North,-999,-999.0,-999.0,38,-99.99,,,-99.99,,2013-02-26 13:31:00,
2013-02-26 06:11:00,-999.0,-99.9,-100.00,WSW,241,2.0,-999.0,-999,-99.99,,,-99.99,,2013-02-26 14:11:00,
2013-02-26 06:22:00,-999.0,-99.9,-100.00,WSW,241,2.0,-999.0,-999,-99.99,,,-99.99,,2013-02-26 14:22:00,
2013-02-26 06:52:00,-999.0,-99.9,-100.00,WNW,286,4.0,-999.0,-999,-99.99,,,-99.99,,2013-02-26 14:52:00,
2013-02-26 07:01:00,38.0,13.0,-100.00,North,-999,-999.0,-999.0,34,-99.99,,,-99.99,,2013-02-26 15:01:00,
2013-02-26 07:31:00,42.0,12.0,-100.00,North,-999,-999.0,-999.0,28,-99.99,,,-99.99,,2013-02-26 15:31:00,
2013-02-26 07:41:00,43.0,12.0,-100.00,North,-999,-999.0,-999.0,28,-99.99,,,-99.99,,2013-02-26 15:41:00,
2013-02-26 07:52:00,43.0,12.0,-100.00,North,-999,-999.0,-999.0,28,-99.99,,,-99.99,,2013-02-26 15:52:00,
2013-02-26 08:02:00,-999.0,-99.9,-100.00,ENE,67,2.0,-999.0,-999,-99.99,,,-99.99,,2013-02-26 16:02:00,
2013-02-26 08:11:00,45.0,-99.9,-100.00,North,-999,-999.0,-999.0,-999,-99.99,,,-99.99,,2013-02-26 16:11:00,
2013-02-26 08:22:00,45.0,-99.9,-100.00,North,-999,-999.0,-999.0,-999,-99.99,,,-99.99,,2013-02-26 16:22:00,
2013-02-26 08:31:00,46.0,14.0,-100.00,North,-999,-999.0,-999.0,26,-99.99,,,-99.99,,2013-02-26 16:31:00,
2013-02-26 08:41:00,48.0,15.0,-100.00,North,-999,-999.0,-999.0,25,-99.99,,,-99.99,,2013-02-26 16:41:00,
2013-02-26 08:52:00,48.0,15.0,-100.00,North,-999,-999.0,-999.0,25,-99.99,,,-99.99,,2013-02-26 16:52:00,
2013-02-26 09:02:00,-999.0,-99.9,-100.00,NNE,33,2.0,-999.0,-999,-99.99,,,-99.99,,2013-02-26 17:02:00,
2013-02-26 09:11:00,48.0,-99.9,-100.00,North,-999,-999.0,-999.0,-999,-99.99,,,-99.99,,2013-02-26 17:11:00,
2013-02-26 09:22:00,-999.0,-99.9,-100.00,NNE,16,6.0,-999.0,-999,-99.99,,,-99.99,,2013-02-26 17:22:00,
2013-02-26 09:32:00,51.0,11.0,-100.00,North,-999,-999.0,-999.0,20,-99.99,,,-99.99,,2013-02-26 17:32:00,
2013-02-26 09:42:00,-999.0,-99.9,-100.00,North,354,15.0,-999.0,-999,-99.99,,,-99.99,,2013-02-26 17:42:00,
2013-02-26 09:52:00,-999.0,-99.9,-100.00,North,354,15.0,-999.0,-999,-99.99,,,-99.99,,2013-02-26 17:52:00,
2013-02-26 10:02:00,-999.0,-99.9,-100.00,North,11,13.0,-999.0,-999,-99.99,,,-99.99,,2013-02-26 18:02:00,
2013-02-26 10:12:00,-999.0,-99.9,-100.00,NW,320,16.0,-999.0,-999,-99.99,,,-99.99,,2013-02-26 18:12:00,
2013-02-26 10:22:00,-999.0,-99.9,-100.00,NW,320,16.0,-999.0,-999,-99.99,,,-99.99,,2013-02-26 18:22:00,
2013-02-26 10:32:00,-999.0,-99.9,-100.00,NNE,16,17.0,-999.0,-999,-99.99,,,-99.99,,2013-02-26 18:32:00,
2013-02-26 10:42:00,-999.0,-99.9,-100.00,NNE,22,16.0,-999.0,-999,-99.99,,,-99.99,,2013-02-26 18:42:00,
2013-02-26 10:53:00,-999.0,-99.9,-100.00,NNE,22,18.0,-999.0,-999,-99.99,,,-99.99,,2013-02-26 18:53:00,
2013-02-26 11:02:00,-999.0,-99.9,-100.00,NNW,348,18.0,-999.0,-999,-99.99,,,-99.99,,2013-02-26 19:02:00,
2013-02-26 11:11:00,-999.0,-99.9,-100.00,North,0,16.0,-999.0,-999,-99.99,,,-99.99,,2013-02-26 19:11:00,
2013-02-26 11:22:00,-999.0,-99.9,-100.00,North,0,15.0,-999.0,-999,-99.99,,,-99.99,,2013-02-26 19:22:00,
2013-02-26 11:41:00,53.0,8.0,-100.00,North,5,15.0,-999.0,16,-99.99,,,-99.99,,2013-02-26 19:41:00,
2013-02-26 11:52:00,-999.0,-99.9,-100.00,North,5,13.0,-999.0,-999,-99.99,,,-99.99,,2013-02-26 19:52:00,
2013-02-26 12:01:00,-999.0,-99.9,-100.00,NNE,16,17.0,-999.0,-999,-99.99,,,-99.99,,2013-02-26 20:01:00,
2013-02-26 12:11:00,-999.0,-99.9,-100.00,NNE,22,13.0,-999.0,-999,-99.99,,,-99.99,,2013-02-26 20:11:00,
2013-02-26 12:22:00,-999.0,-99.9,-100.00,NNE,22,14.0,-999.0,-999,-99.99,,,-99.99,,2013-02-26 20:22:00,
2013-02-26 12:32:00,-999.0,-99.9,-100.00,NNE,22,14.0,-999.0,-999,-99.99,,,-99.99,,2013-02-26 20:32:00,
2013-02-26 12:42:00,-999.0,-99.9,-100.00,NNE,22,14.0,-999.0,-999,-99.99,,,-99.99,,2013-02-26 20:42:00,
2013-02-26 12:52:00,-999.0,-99.9,-100.00,NNE,22,14.0,-999.0,-999,-99.99,,,-99.99,,2013-02-26 20:52:00,
2013-02-26 13:21:00,-999.0,-99.9,-100.00,North,11,12.0,-999.0,-999,-99.99,,,-99.99,,2013-02-26 21:21:00,
2013-02-26 13:31:00,55.0,-99.9,-100.00,North,-999,-999.0,-999.0,-999,-99.99,,,-99.99,,2013-02-26 21:31:00,
2013-02-26 13:41:00,55.0,-99.9,-100.00,North,-999,-999.0,-999.0,-999,-99.99,,,-99.99,,2013-02-26 21:41:00,
2013-02-26 13:52:00,55.0,-99.9,-100.00,North,-999,-999.0,-999.0,-999,-99.99,,,-99.99,,2013-02-26 21:52:00,
2013-02-26 14:01:00,-999.0,-99.9,-100.00,NNE,22,12.0,-999.0,-999,-99.99,,,-99.99,,2013-02-26 22:01:00,
2013-02-26 14:11:00,-999.0,-99.9,-100.00,North,354,11.0,-999.0,-999,-99.99,,,-99.99,,2013-02-26 22:11:00,
2013-02-26 14:21:00,-999.0,-99.9,-100.00,North,354,11.0,-999.0,-999,-99.99,,,-99.99,,2013-02-26 22:21:00,
2013-02-26 14:32:00,-999.0,-99.9,-100.00,North,354,11.0,-999.0,-999,-99.99,,,-99.99,,2013-02-26 22:32:00,
2013-02-26 14:41:00,56.0,7.0,-100.00,North,-999,-999.0,-999.0,13,-99.99,,,-99.99,,2013-02-26 22:41:00,
2013-02-26 14:52:00,-999.0,-99.9,-100.00,NNE,16,10.0,-999.0,-999,-99.99,,,-99.99,,2013-02-26 22:52:00,
2013-02-26 15:01:00,55.0,5.0,-100.00,North,-999,-999.0,-999.0,13,-99.99,,,-99.99,,2013-02-26 23:01:00,
2013-02-26 15:11:00,56.0,-99.9,-100.00,North,-999,-999.0,-999.0,-999,-99.99,,,-99.99,,2013-02-26 23:11:00,
2013-02-26 15:21:00,-999.0,-99.9,-100.00,North,5,10.0,-999.0,-999,-99.99,,,-99.99,,2013-02-26 23:21:00,
2013-02-26 15:31:00,55.0,6.0,-100.00,North,-999,-999.0,-999.0,13,-99.99,,,-99.99,,2013-02-26 23:31:00,
2013-02-26 15:42:00,56.0,-99.9,-100.00,North,-999,-999.0,-999.0,-999,-99.99,,,-99.99,,2013-02-26 23:42:00,
2013-02-26 15:52:00,-999.0,-99.9,-100.00,NNE,16,12.0,-999.0,-999,-99.99,,,-99.99,,2013-02-26 23:52:00,
2013-02-26 16:02:00,-999.0,-99.9,-100.00,North,11,14.0,-999.0,-999,-99.99,,,-99.99,,2013-02-27 00:02:00,
2013-02-26 16:11:00,-999.0,-99.9,-100.00,NNW,348,13.0,-999.0,-999,-99.99,,,-99.99,,2013-02-27 00:11:00,
2013-02-26 16:22:00,-999.0,-99.9,-100.00,NNW,348,13.0,-999.0,-999,-99.99,,,-99.99,,2013-02-27 00:22:00,
2013-02-26 16:32:00,-999.0,-99.9,-100.00,North,5,11.0,-999.0,-999,-99.99,,,-99.99,,2013-02-27 00:32:00,
2013-02-26 16:42:00,-999.0,-99.9,-100.00,North,11,9.0,-999.0,-999,-99.99,,,-99.99,,2013-02-27 00:42:00,
2013-02-26 16:52:00,-999.0,-99.9,-100.00,North,11,9.0,-999.0,-999,-99.99,,,-99.99,,2013-02-27 00:52:00,
2013-02-26 17:01:00,-999.0,-99.9,-100.00,WNW,303,8.0,-999.0,-999,-99.99,,,-99.99,,2013-02-27 01:01:00,
2013-02-26 17:11:00,-999.0,-99.9,-100.00,NNW,348,9.0,-999.0,-999,-99.99,,,-99.99,,2013-02-27 01:11:00,
2013-02-26 17:22:00,-999.0,-99.9,-100.00,NNW,348,9.0,-999.0,-999,-99.99,,,-99.99,,2013-02-27 01:22:00,
2013-02-26 17:41:00,53.0,5.0,-100.00,North,-999,-999.0,-999.0,14,-99.99,,,-99.99,,2013-02-27 01:41:00,
2013-02-26 17:51:00,53.0,5.0,-100.00,North,-999,-999.0,-999.0,14,-99.99,,,-99.99,,2013-02-27 01:51:00,
2013-02-26 18:02:00,-999.0,-99.9,-100.00,NNW,348,6.0,-999.0,-999,-99.99,,,-99.99,,2013-02-27 02:02:00,
2013-02-26 18:16:00,52.0,-99.9,-100.00,North,-999,-999.0,-999.0,-999,-99.99,,,-99.99,,2013-02-27 02:16:00,
2013-02-26 18:25:00,52.0,-99.9,-100.00,North,-999,-999.0,-999.0,-999,-99.99,,,-99.99,,2013-02-27 02:25:00,
2013-02-26 18:41:00,51.0,6.0,-100.00,North,-999,-999.0,-999.0,15,-99.99,,,-99.99,,2013-02-27 02:41:00,
2013-02-26 18:52:00,51.0,6.0,-100.00,North,-999,-999.0,-999.0,15,-99.99,,,-99.99,,2013-02-27 02:52:00,
2013-02-26 19:02:00,-999.0,-99.9,-100.00,North,11,3.0,-999.0,-999,-99.99,,,-99.99,,2013-02-27 03:02:00,
2013-02-26 19:12:00,-999.0,-99.9,-100.00,North,11,3.0,-999.0,-999,-99.99,,,-99.99,,2013-02-27 03:12:00,
2013-02-26 19:22:00,-999.0,-99.9,-100.00,North,11,3.0,-999.0,-999,-99.99,,,-99.99,,2013-02-27 03:22:00,
2013-02-26 19:32:00,-999.0,-99.9,-100.00,NNE,16,5.0,-999.0,17,-99.99,,,-99.99,,2013-02-27 03:32:00,
2013-02-26 19:52:00,-999.0,-99.9,-100.00,ENE,78,7.0,-999.0,-999,-99.99,,,-99.99,,2013-02-27 03:52:00,
2013-02-26 20:01:00,49.0,8.0,-100.00,North,-999,-999.0,-999.0,18,-99.99,,,-99.99,,2013-02-27 04:01:00,
2013-02-26 20:12:00,-999.0,-99.9,-100.00,NNE,28,6.0,-999.0,-999,-99.99,,,-99.99,,2013-02-27 04:12:00,
2013-02-26 20:22:00,-999.0,-99.9,-100.00,NNE,28,6.0,-999.0,-999,-99.99,,,-99.99,,2013-02-27 04:22:00,
2013-02-26 20:52:00,-999.0,-99.9,-100.00,NNE,33,5.0,-999.0,-999,-99.99,,,-99.99,,2013-02-27 04:52:00,
2013-02-26 21:01:00,47.0,10.0,-100.00,North,-999,-999.0,-999.0,22,-99.99,,,-99.99,,2013-02-27 05:01:00,
2013-02-26 21:12:00,-999.0,-99.9,-100.00,NNE,28,0.0,-999.0,-999,-99.99,,,-99.99,,2013-02-27 05:12:00,
2013-02-26 21:22:00,-999.0,-99.9,-100.00,NNE,28,0.0,-999.0,-999,-99.99,,,-99.99,,2013-02-27 05:22:00,
2013-02-26 21:32:00,46.0,11.0,-100.00,North,-999,-999.0,-999.0,23,-99.99,,,-99.99,,2013-02-27 05:32:00,
2013-02-26 21:41:00,46.0,11.0,-100.00,North,-999,-999.0,-999.0,23,-99.99,,,-99.99,,2013-02-27 05:41:00,
2013-02-26 21:52:00,46.0,11.0,-100.00,North,-999,-999.0,-999.0,23,-99.99,,,-99.99,,2013-02-27 05:52:00,
2013-02-26 22:02:00,-999.0,-99.9,-100.00,NNE,22,3.0,-999.0,-999,-99.99,,,-99.99,,2013-02-27 06:02:00,
2013-02-26 22:11:00,45.0,-99.9,-100.00,North,-999,-999.0,-999.0,-999,-99.99,,,-99.99,,2013-02-27 06:11:00,
2013-02-26 22:22:00,45.0,-99.9,-100.00,North,-999,-999.0,-999.0,-999,-99.99,,,-99.99,,2013-02-27 06:22:00,
2013-02-26 22:32:00,46.0,11.0,-100.00,North,-999,-999.0,-999.0,23,-99.99,,,-99.99,,2013-02-27 06:32:00,
2013-02-26 22:42:00,45.0,-99.9,-100.00,North,-999,-999.0,-999.0,-999,-99.99,,,-99.99,,2013-02-27 06:42:00,
2013-02-26 22:52:00,45.0,-99.9,-100.00,North,-999,-999.0,-999.0,-999,-99.99,,,-99.99,,2013-02-27 06:52:00,
2013-02-26 23:12:00,-999.0,-99.9,-100.00,NW,315,4.0,-999.0,-999,-99.99,,,-99.99,,2013-02-27 07:12:00,
2013-02-26 23:22:00,-999.0,-99.9,-100.00,NW,315,4.0,-999.0,-999,-99.99,,,-99.99,,2013-02-27 07:22:00,
2013-02-26 23:31:00,44.0,11.0,-100.00,North,-999,-999.0,-999.0,25,-99.99,,,-99.99,,2013-02-27 07:31:00,
2013-02-26 23:41:00,43.0,11.0,-100.00,North,-999,-999.0,-999.0,26,-99.99,,,-99.99,,2013-02-27 07:41:00,